Time;durP1;ratioP1;P1;durP2;ratioP2;P2;SDS_P1;SDS_P2;PMS_P1;PMS_P2;Temp;Humidity;BMP_temperature;BMP_pressure;BME280_temperature;BME280_humidity;BME280_pressure;Samples;Min_cycle;Max_cycle;Signal;HPM_P1;HPM_P2
2021/12/14 00:00:40;;;;;;;5.67;5.10;;;;;;;5.77;100.00;101441.88;5000845;28;20189;-59
2021/12/14 00:03:07;;;;;;;5.37;4.87;;;;;;;5.78;100.00;101443.63;5000236;28;20236;-57
2021/12/14 00:05:33;;;;;;;5.27;4.77;;;;;;;5.79;100.00;101441.91;4996106;28;20187;-59
2021/12/14 00:08:02;;;;;;;4.67;4.27;;;;;;;5.78;100.00;101438.50;5010849;28;20283;-58
2021/12/14 00:13:13;;;;;;;4.33;3.93;;;;;;;5.81;100.00;101447.97;5002070;28;20232;-59
2021/12/14 00:15:39;;;;;;;4.80;4.37;;;;;;;5.81;100.00;101445.41;5004167;28;20641;-59
2021/12/14 00:18:10;;;;;;;4.37;3.97;;;;;;;5.82;100.00;101454.84;5019188;28;20228;-59
2021/12/14 00:20:51;;;;;;;4.70;4.30;;;;;;;5.83;100.00;101459.16;5011332;28;20209;-59
2021/12/14 00:25:51;;;;;;;4.30;3.90;;;;;;;5.83;100.00;101466.88;5005061;28;20197;-59
2021/12/14 00:28:28;;;;;;;4.00;3.60;;;;;;;5.84;100.00;101467.72;5006190;28;20216;-59
2021/12/14 00:30:56;;;;;;;4.40;4.00;;;;;;;5.82;100.00;101462.56;4999766;28;20211;-58
2021/12/14 00:33:24;;;;;;;4.60;4.00;;;;;;;5.82;100.00;101460.00;5004412;28;20197;-59
2021/12/14 00:35:50;;;;;;;4.10;3.70;;;;;;;5.82;100.00;101462.56;4999945;28;20644;-58
2021/12/14 00:38:21;;;;;;;3.50;3.20;;;;;;;5.82;100.00;101461.72;5015459;28;20218;-58
2021/12/14 00:41:03;;;;;;;3.87;3.50;;;;;;;5.81;100.00;101458.25;5008031;28;20185;-59
2021/12/14 00:43:28;;;;;;;4.40;3.83;;;;;;;5.80;100.00;101464.22;5005690;28;20200;-60
2021/12/14 00:45:54;;;;;;;5.20;4.73;;;;;;;5.79;100.00;101454.75;5004644;28;20192;-58
2021/12/14 00:48:20;;;;;;;6.97;6.27;;;;;;;5.79;100.00;101457.31;4997005;28;20220;-59
2021/12/14 00:50:51;;;;;;;7.17;6.47;;;;;;;5.78;100.00;101459.03;5010294;28;20188;-58
2021/12/14 00:53:17;;;;;;;6.47;5.87;;;;;;;5.78;100.00;101463.28;4995002;28;20192;-60
2021/12/14 00:55:46;;;;;;;6.13;5.63;;;;;;;5.77;100.00;101461.53;5001300;28;20193;-59
2021/12/14 00:58:13;;;;;;;5.87;5.37;;;;;;;5.76;100.00;101459.81;5003060;28;20284;-58
2021/12/14 01:00:46;;;;;;;5.43;4.93;;;;;;;5.74;100.00;101462.34;5006542;28;20194;-59
2021/12/14 01:03:13;;;;;;;5.20;4.70;;;;;;;5.73;100.00;101470.88;4999052;28;20225;-58
2021/12/14 01:05:45;;;;;;;4.80;4.40;;;;;;;5.74;100.00;101467.47;5006729;28;20761;-57
2021/12/14 01:08:15;;;;;;;4.53;4.10;;;;;;;5.75;100.00;101465.75;5011088;28;20222;-58
2021/12/14 01:11:02;;;;;;;4.60;4.20;;;;;;;5.75;100.00;101469.22;5003553;28;20552;-58
2021/12/14 01:13:31;;;;;;;4.50;4.10;;;;;;;5.74;100.00;101466.63;5001260;28;20275;-57
2021/12/14 01:16:18;;;;;;;4.70;3.93;;;;;;;5.73;100.00;101475.16;5004486;28;20278;-58
2021/12/14 01:19:00;;;;;;;4.43;4.03;;;;;;;5.74;100.00;101474.31;5008861;28;20231;-59
2021/12/14 01:24:10;;;;;;;4.40;4.00;;;;;;;5.76;100.00;101464.94;5003477;28;20292;-58
2021/12/14 01:26:39;;;;;;;4.50;4.10;;;;;;;5.75;100.00;101471.78;5004175;28;20219;-59
2021/12/14 01:29:08;;;;;;;3.90;3.50;;;;;;;5.76;100.00;101468.41;5007544;28;20194;-57
2021/12/14 01:31:38;;;;;;;4.00;3.67;;;;;;;5.76;100.00;101468.41;5009340;28;20589;-58
2021/12/14 01:34:22;;;;;;;4.50;4.10;;;;;;;5.78;100.00;101477.03;5000934;28;20193;-60
2021/12/14 01:36:53;;;;;;;4.43;3.97;;;;;;;5.78;100.00;101471.88;4997372;28;20521;-60
2021/12/14 01:41:59;;;;;;;5.50;5.00;;;;;;;5.78;100.00;101477.03;5020652;28;20203;-60
2021/12/14 01:44:27;;;;;;;5.60;5.10;;;;;;;5.77;100.00;101470.13;5032057;27;20274;-59
2021/12/14 01:46:59;;;;;;;5.63;5.10;;;;;;;5.76;100.00;101470.06;5006728;28;20217;-59
2021/12/14 01:49:28;;;;;;;5.07;4.63;;;;;;;5.75;100.00;101465.75;5006030;28;20618;-56
2021/12/14 01:51:57;;;;;;;5.70;5.13;;;;;;;5.76;100.00;101464.94;5001836;28;20713;-59
2021/12/14 01:54:39;;;;;;;6.03;5.47;;;;;;;5.76;100.00;101457.22;5003259;28;20192;-59
2021/12/14 01:57:09;;;;;;;5.90;5.40;;;;;;;5.76;100.00;101462.38;5006045;28;20691;-58
2021/12/14 01:59:38;;;;;;;6.63;5.43;;;;;;;5.74;100.00;101458.91;5006338;28;20223;-59
2021/12/14 02:02:19;;;;;;;5.70;5.20;;;;;;;5.75;100.00;101464.09;4998798;28;20188;-58
2021/12/14 02:04:48;;;;;;;6.40;5.80;;;;;;;5.75;100.00;101455.50;5010093;28;20200;-56
2021/12/14 02:07:16;;;;;;;5.87;5.30;;;;;;;5.75;100.00;101461.50;5017853;28;20203;-57
2021/12/14 02:09:42;;;;;;;6.10;5.40;;;;;;;5.77;100.00;101462.44;5014815;28;20586;-57
2021/12/14 02:12:20;;;;;;;5.47;4.97;;;;;;;5.78;100.00;101455.59;5001528;28;20634;-58
2021/12/14 02:14:47;;;;;;;6.10;5.50;;;;;;;5.78;100.00;101456.47;4997904;28;20550;-57
2021/12/14 02:17:15;;;;;;;6.00;5.40;;;;;;;5.78;100.00;101458.16;5009208;28;20295;-58
2021/12/14 02:19:41;;;;;;;5.33;4.83;;;;;;;5.75;100.00;101458.94;5019969;28;20219;-56
2021/12/14 02:22:08;;;;;;;5.60;5.03;;;;;;;5.76;100.00;101459.81;5006678;28;20199;-56
2021/12/14 02:24:37;;;;;;;5.43;4.93;;;;;;;5.76;100.00;101454.66;5010517;28;20540;-57
2021/12/14 02:27:03;;;;;;;5.80;5.30;;;;;;;5.77;100.00;101461.53;4998323;28;20239;-59
2021/12/14 02:29:43;;;;;;;6.30;5.70;;;;;;;5.76;100.00;101464.94;5001627;28;20190;-60
2021/12/14 02:32:25;;;;;;;6.13;5.63;;;;;;;5.72;100.00;101465.69;5002560;28;20682;-60
2021/12/14 02:35:00;;;;;;;6.60;6.00;;;;;;;5.71;100.00;101453.69;4995116;28;20184;-58
2021/12/14 02:37:52;;;;;;;6.23;5.63;;;;;;;5.71;100.00;101445.97;4999146;28;20701;-59
2021/12/14 02:40:53;;;;;;;6.10;5.50;;;;;;;5.72;100.00;101452.84;5002835;28;20225;-56
2021/12/14 02:43:17;;;;;;;6.20;5.60;;;;;;;5.70;100.00;101454.50;5004373;28;20418;-58
2021/12/14 02:45:42;;;;;;;6.37;5.77;;;;;;;5.72;100.00;101452.84;5005250;28;20184;-59
2021/12/14 02:48:10;;;;;;;6.20;5.60;;;;;;;5.74;100.00;101443.50;4998269;28;20241;-60
2021/12/14 02:50:37;;;;;;;6.57;5.97;;;;;;;5.73;100.00;101442.63;4999976;28;20185;-59
2021/12/14 02:53:03;;;;;;;5.93;5.43;;;;;;;5.74;100.00;101446.94;5003448;28;20193;-58
2021/12/14 02:55:28;;;;;;;7.00;6.40;;;;;;;5.74;100.00;101436.66;5011708;28;20274;-60
2021/12/14 02:57:58;;;;;;;7.03;6.37;;;;;;;5.75;100.00;101450.34;4997831;28;20291;-58
2021/12/14 03:00:30;;;;;;;7.20;6.60;;;;;;;5.75;100.00;101455.50;4997863;28;20542;-59
2021/12/14 03:02:57;;;;;;;7.77;7.07;;;;;;;5.76;100.00;101462.38;4990954;28;20649;-58
2021/12/14 03:05:27;;;;;;;8.13;7.43;;;;;;;5.77;100.00;101457.28;4999696;28;20204;-59
2021/12/14 03:08:05;;;;;;;8.47;7.57;;;;;;;5.79;100.00;101465.03;5003577;28;20667;-58
2021/12/14 03:10:50;;;;;;;7.77;7.07;;;;;;;5.79;100.00;101473.63;5002542;28;20204;-59
2021/12/14 03:13:17;;;;;;;8.33;7.17;;;;;;;5.79;100.00;101467.59;4999410;28;20672;-59
2021/12/14 03:15:48;;;;;;;8.00;7.20;;;;;;;5.79;100.00;101483.91;5001636;28;20251;-59
2021/12/14 03:18:17;;;;;;;7.70;7.03;;;;;;;5.80;100.00;101482.19;4993805;28;20225;-59
2021/12/14 03:20:53;;;;;;;7.97;7.30;;;;;;;5.79;100.00;101491.63;5012720;28;20295;-60
2021/12/14 03:23:29;;;;;;;7.80;7.10;;;;;;;5.78;100.00;101495.00;5002506;28;20194;-59
2021/12/14 03:25:57;;;;;;;8.37;7.67;;;;;;;5.77;100.00;101500.06;5001724;28;20259;-58
2021/12/14 03:28:25;;;;;;;9.77;8.10;;;;;;;5.77;100.00;101493.25;5005027;28;20263;-59
2021/12/14 03:30:50;;;;;;;8.83;7.93;;;;;;;5.77;100.00;101498.41;5000703;28;20188;-57
2021/12/14 03:33:33;;;;;;;9.03;8.23;;;;;;;5.79;100.00;101501.00;5013072;28;20190;-59
2021/12/14 03:36:09;;;;;;;9.30;8.40;;;;;;;5.78;100.00;101477.03;5000350;28;20204;-57
2021/12/14 03:38:54;;;;;;;10.70;9.67;;;;;;;5.77;100.00;101466.69;5000139;28;20302;-58
2021/12/14 03:41:24;;;;;;;10.13;9.23;;;;;;;5.74;100.00;101461.47;5015900;28;20219;-59
2021/12/14 03:44:00;;;;;;;9.87;8.87;;;;;;;5.71;100.00;101451.97;4998324;28;20186;-60
2021/12/14 03:46:32;;;;;;;9.90;9.00;;;;;;;5.71;100.00;101453.69;4998548;28;20209;-58
2021/12/14 03:48:59;;;;;;;9.63;8.57;;;;;;;5.68;100.00;101464.72;5094093;27;20198;-58
2021/12/14 03:51:26;;;;;;;9.30;8.50;;;;;;;5.66;100.00;101468.97;5012211;28;20215;-58
2021/12/14 03:53:54;;;;;;;8.83;8.03;;;;;;;5.65;100.00;101477.47;4999371;28;20196;-58
2021/12/14 03:56:20;;;;;;;8.47;7.67;;;;;;;5.63;100.00;101491.97;5009081;28;20202;-57
2021/12/14 03:58:47;;;;;;;8.73;7.83;;;;;;;5.62;100.00;101483.38;5012512;28;20604;-60
2021/12/14 04:01:22;;;;;;;9.10;8.20;;;;;;;5.63;100.00;101474.00;5000885;28;20198;-58
2021/12/14 04:04:01;;;;;;;10.00;9.00;;;;;;;5.60;100.00;101466.19;4998543;28;20211;-59
2021/12/14 04:06:27;;;;;;;10.40;9.40;;;;;;;5.58;100.00;101458.44;4993510;28;20207;-57
2021/12/14 04:08:53;;;;;;;10.90;9.80;;;;;;;5.56;100.00;101451.50;5005376;28;20578;-58
2021/12/14 04:11:20;;;;;;;11.77;10.57;;;;;;;5.54;100.00;101446.34;5004131;28;20215;-57
2021/12/14 04:13:49;;;;;;;11.20;10.10;;;;;;;5.52;100.00;101450.53;4998191;28;20619;-59
2021/12/14 04:16:20;;;;;;;10.93;9.80;;;;;;;5.51;100.00;101448.81;5002969;28;20582;-57
2021/12/14 04:18:47;;;;;;;11.30;10.00;;;;;;;5.53;100.00;101443.69;5004654;28;20210;-58
2021/12/14 04:21:13;;;;;;;11.50;9.93;;;;;;;5.52;100.00;101440.28;4998782;28;20232;-58
2021/12/14 04:23:44;;;;;;;10.60;9.53;;;;;;;5.51;100.00;101440.25;5009985;28;20193;-60
2021/12/14 04:26:12;;;;;;;11.90;10.60;;;;;;;5.51;100.00;101440.25;5001095;28;20250;-57
2021/12/14 04:28:41;;;;;;;12.40;11.10;;;;;;;5.49;100.00;101430.78;4999144;28;20559;-58
2021/12/14 04:31:07;;;;;;;11.10;9.90;;;;;;;5.46;100.00;101427.25;5001454;28;20445;-57
2021/12/14 04:33:37;;;;;;;12.33;10.13;;;;;;;5.43;100.00;101429.75;4995122;28;20189;-57
2021/12/14 04:36:09;;;;;;;11.03;9.73;;;;;;;5.40;100.00;101433.06;5000221;28;20203;-57
2021/12/14 04:38:44;;;;;;;9.70;8.40;;;;;;;5.38;100.00;101447.53;4996915;28;20299;-59
2021/12/14 04:52:06;;;;;;;9.97;8.33;;;;;;;5.48;100.00;101435.88;5013243;28;20577;-60
2021/12/14 04:54:40;;;;;;;10.90;9.40;;;;;;;5.49;100.00;101441.06;5004892;28;20191;-58
2021/12/14 04:57:27;;;;;;;11.83;10.03;;;;;;;5.52;100.00;101417.16;5001131;28;20248;-58
2021/12/14 04:59:57;;;;;;;13.77;10.70;;;;;;;5.51;100.00;101415.41;5004874;28;21677;-57
2021/12/14 05:02:29;;;;;;;14.23;10.47;;;;;;;5.52;100.00;101424.00;4997671;28;20280;-58
2021/12/14 05:04:56;;;;;;;13.73;10.70;;;;;;;5.51;100.00;101435.09;5001447;28;20189;-59
2021/12/14 05:07:34;;;;;;;11.67;10.03;;;;;;;5.52;100.00;101432.56;4994242;28;20219;-58
2021/12/14 05:10:07;;;;;;;11.03;9.83;;;;;;;5.53;100.00;101421.47;5026511;28;20225;-58
2021/12/14 05:12:34;;;;;;;12.97;10.10;;;;;;;5.52;100.00;101399.19;5017392;28;20192;-57
2021/12/14 05:15:04;;;;;;;12.77;10.23;;;;;;;5.49;100.00;101419.63;5000612;28;20670;-57
2021/12/14 05:17:33;;;;;;;11.43;9.83;;;;;;;5.51;100.00;101427.41;5039882;28;20728;-59
2021/12/14 05:20:00;;;;;;;12.33;9.87;;;;;;;5.48;100.00;101421.34;5018777;28;20738;-58
2021/12/14 05:22:33;;;;;;;13.17;9.37;;;;;;;5.51;100.00;101414.56;5006696;28;20230;-59
2021/12/14 05:25:04;;;;;;;12.43;9.30;;;;;;;5.47;100.00;101416.16;4992678;28;20200;-60
2021/12/14 05:27:42;;;;;;;15.57;10.50;;;;;;;5.43;100.00;101410.06;5005888;28;20215;-59
2021/12/14 05:30:15;;;;;;;14.80;10.60;;;;;;;5.41;100.00;101411.69;5009059;28;20192;-59
2021/12/14 05:32:41;;;;;;;14.30;10.00;;;;;;;5.37;100.00;101420.13;5025693;28;20215;-57
2021/12/14 05:35:09;;;;;;;15.70;10.33;;;;;;;5.37;100.00;101412.41;5006952;28;20637;-58
2021/12/14 05:37:42;;;;;;;12.90;9.80;;;;;;;5.34;100.00;101412.34;5007357;28;20953;-58
2021/12/14 05:40:17;;;;;;;15.03;9.43;;;;;;;5.33;100.00;101393.50;5009724;28;20210;-59
2021/12/14 05:45:28;;;;;;;13.50;9.80;;;;;;;5.28;100.00;101409.59;5003380;28;20231;-58
2021/12/14 05:47:56;;;;;;;12.97;9.03;;;;;;;5.28;100.00;101414.72;5002698;28;20645;-58
2021/12/14 05:50:27;;;;;;;10.97;8.40;;;;;;;5.27;100.00;101413.88;4998498;28;20242;-58
2021/12/14 05:52:52;;;;;;;15.50;10.63;;;;;;;5.30;100.00;101428.47;4999391;28;20199;-56
2021/12/14 05:55:25;;;;;;;17.63;12.40;;;;;;;5.28;100.00;101423.31;4997915;28;20196;-59
2021/12/14 05:57:52;;;;;;;19.63;13.23;;;;;;;5.28;100.00;101419.84;4997954;28;20680;-56
2021/12/14 06:00:20;;;;;;;24.50;16.03;;;;;;;5.28;100.00;101425.88;4999443;28;20223;-60
2021/12/14 06:02:46;;;;;;;23.83;15.17;;;;;;;5.27;100.00;101419.00;5013494;27;20230;-58
2021/12/14 06:05:18;;;;;;;29.87;17.23;;;;;;;5.26;100.00;101406.97;5011706;28;20189;-59
2021/12/14 06:07:44;;;;;;;25.17;15.80;;;;;;;5.24;100.00;101402.59;5003719;28;20677;-59
2021/12/14 06:10:12;;;;;;;27.40;17.47;;;;;;;5.22;100.00;101397.44;4998880;28;20307;-59
2021/12/14 06:12:39;;;;;;;26.07;16.37;;;;;;;5.20;100.00;101401.66;5038299;28;20543;-59
2021/12/14 06:15:10;;;;;;;23.57;15.53;;;;;;;5.21;100.00;101399.97;5022272;28;20188;-58
2021/12/14 06:17:39;;;;;;;21.77;14.73;;;;;;;5.23;100.00;101409.44;5006241;28;20315;-57
2021/12/14 06:20:13;;;;;;;22.53;14.90;;;;;;;5.26;100.00;101396.72;5017516;28;20219;-60
2021/12/14 06:22:40;;;;;;;23.63;14.13;;;;;;;5.23;100.00;101394.06;5003981;28;20246;-57
2021/12/14 06:25:13;;;;;;;24.57;14.83;;;;;;;5.21;100.00;101402.53;5011465;28;20234;-58
2021/12/14 06:27:39;;;;;;;23.20;14.23;;;;;;;5.19;100.00;101394.78;5014506;28;20212;-58
2021/12/14 06:30:32;;;;;;;23.07;15.13;;;;;;;5.18;100.00;101395.59;5005052;28;20193;-58
2021/12/14 06:33:03;;;;;;;22.43;13.50;;;;;;;5.18;100.00;101382.75;5105214;27;20204;-57
2021/12/14 06:35:47;;;;;;;27.07;16.70;;;;;;;5.18;100.00;101386.22;5076948;28;20188;-59
2021/12/14 06:38:28;;;;;;;22.53;14.67;;;;;;;5.18;100.00;101365.69;5051965;28;20209;-59
2021/12/14 06:41:09;;;;;;;24.17;15.43;;;;;;;5.18;100.00;101368.25;5006797;28;20247;-58
2021/12/14 06:43:51;;;;;;;24.23;15.17;;;;;;;5.17;100.00;101358.81;4995159;28;20203;-60
2021/12/14 06:46:32;;;;;;;19.53;13.53;;;;;;;5.16;100.00;101354.50;4996161;28;20193;-56
2021/12/14 06:49:04;;;;;;;24.77;14.93;;;;;;;5.16;100.00;101359.63;4998355;28;20287;-59
2021/12/14 06:51:31;;;;;;;23.17;15.03;;;;;;;5.13;100.00;101363.81;5004849;28;20196;-60
2021/12/14 06:54:09;;;;;;;22.43;13.90;;;;;;;5.08;100.00;101363.63;5004774;28;20206;-60
2021/12/14 06:56:36;;;;;;;19.90;13.20;;;;;;;5.04;100.00;101372.09;4994781;28;20260;-59
2021/12/14 06:59:07;;;;;;;20.17;12.80;;;;;;;5.02;100.00;101379.72;4999773;28;20217;-60
2021/12/14 07:01:37;;;;;;;23.17;13.43;;;;;;;5.03;100.00;101384.03;4993530;28;20199;-59
2021/12/14 07:04:10;;;;;;;16.97;11.30;;;;;;;5.06;100.00;101390.97;5007092;28;20215;-60
2021/12/14 07:06:39;;;;;;;21.07;12.53;;;;;;;5.06;100.00;101390.97;5005365;28;20282;-59
2021/12/14 07:09:25;;;;;;;17.53;11.20;;;;;;;5.03;100.00;101403.69;5025302;28;20252;-59
2021/12/14 07:12:06;;;;;;;18.80;12.27;;;;;;;5.02;100.00;101415.63;5028625;28;20187;-59
2021/12/14 07:14:31;;;;;;;17.97;11.83;;;;;;;5.02;100.00;101412.22;4997197;28;20593;-57
2021/12/14 07:17:04;;;;;;;17.90;12.00;;;;;;;5.03;100.00;101403.69;5016601;28;20204;-58
2021/12/14 07:19:38;;;;;;;16.00;10.60;;;;;;;5.06;100.00;101416.63;5022803;28;20547;-58
2021/12/14 07:22:04;;;;;;;18.33;11.23;;;;;;;5.07;100.00;101400.38;5025426;28;20542;-60
2021/12/14 07:24:36;;;;;;;16.30;11.03;;;;;;;5.08;100.00;101422.66;5005776;28;20189;-58
2021/12/14 07:27:16;;;;;;;18.10;11.70;;;;;;;5.09;100.00;101433.81;5027076;28;20561;-60
2021/12/14 07:29:42;;;;;;;19.07;11.07;;;;;;;5.10;100.00;101421.00;5017495;28;20243;-58
2021/12/14 07:32:08;;;;;;;16.77;12.23;;;;;;;5.11;100.00;101432.16;5009708;28;20224;-59
2021/12/14 07:34:34;;;;;;;22.00;14.60;;;;;;;5.10;100.00;101440.69;5014421;28;20212;-57
2021/12/14 07:36:59;;;;;;;22.30;16.20;;;;;;;5.10;100.00;101445.81;5029680;28;20278;-57
2021/12/14 07:39:25;;;;;;;26.40;20.33;;;;;;;5.11;100.00;101445.00;5015359;28;20668;-57
2021/12/14 07:41:53;;;;;;;23.73;18.97;;;;;;;5.11;100.00;101448.41;5023656;28;20244;-59
2021/12/14 07:44:26;;;;;;;24.30;19.97;;;;;;;5.12;100.00;101457.88;5022136;28;20188;-56
2021/12/14 07:46:56;;;;;;;29.13;21.97;;;;;;;5.11;100.00;101458.69;5014042;28;20235;-59
2021/12/14 07:49:33;;;;;;;37.43;29.50;;;;;;;5.12;100.00;101462.13;5013671;28;20213;-56
2021/12/14 07:52:10;;;;;;;34.57;27.13;;;;;;;5.12;100.00;101468.13;5003524;28;20699;-58
2021/12/14 07:54:38;;;;;;;33.60;25.47;;;;;;;5.13;100.00;101467.31;5017555;28;20198;-61
2021/12/14 07:57:08;;;;;;;36.70;27.73;;;;;;;5.13;100.00;101485.28;5025996;28;20212;-58
2021/12/14 07:59:38;;;;;;;46.50;35.47;;;;;;;5.16;100.00;101494.75;5019017;28;20503;-58
2021/12/14 08:02:15;;;;;;;38.67;30.50;;;;;;;5.16;100.00;101500.78;5002449;28;20183;-59
2021/12/14 08:04:49;;;;;;;37.70;28.93;;;;;;;5.18;100.00;101496.56;5015333;28;20773;-59
2021/12/14 08:07:32;;;;;;;29.50;23.77;;;;;;;5.21;100.00;101492.38;5118938;27;20208;-58
2021/12/14 08:10:15;;;;;;;23.87;19.33;;;;;;;5.23;100.00;101480.44;5015623;28;20185;-59
2021/12/14 08:12:48;;;;;;;21.83;17.20;;;;;;;5.25;100.00;101474.53;5021483;28;20181;-57
2021/12/14 08:15:22;;;;;;;19.27;14.33;;;;;;;5.25;100.00;101464.28;5018843;28;20439;-57
2021/12/14 08:18:25;;;;;;;15.80;12.93;;;;;;;5.28;100.00;101459.25;5030822;28;20260;-59
2021/12/14 08:21:02;;;;;;;17.13;12.93;;;;;;;5.32;100.00;101444.81;5017652;28;20648;-58
2021/12/14 08:23:38;;;;;;;15.07;11.60;;;;;;;5.38;100.00;101457.81;5018767;28;20228;-58
2021/12/14 08:26:09;;;;;;;15.80;11.93;;;;;;;5.40;100.00;101448.47;5021299;28;20191;-57
2021/12/14 08:28:55;;;;;;;14.57;11.70;;;;;;;5.41;100.00;101442.50;5008912;28;20670;-58
2021/12/14 08:31:24;;;;;;;15.37;11.40;;;;;;;5.42;100.00;101459.66;5008203;28;20191;-58
2021/12/14 08:33:55;;;;;;;14.13;10.93;;;;;;;5.46;100.00;101464.06;5013872;28;20193;-58
2021/12/14 08:36:20;;;;;;;15.00;11.77;;;;;;;5.49;100.00;101460.72;5016963;28;20249;-57
2021/12/14 08:38:45;;;;;;;13.80;11.40;;;;;;;5.54;100.00;101469.44;5020021;28;20221;-59
2021/12/14 08:41:21;;;;;;;15.00;12.27;;;;;;;5.60;100.00;101463.63;5023099;28;20196;-57
2021/12/14 08:43:50;;;;;;;14.70;12.50;;;;;;;5.63;100.00;101453.44;5013702;28;20188;-58
2021/12/14 08:46:34;;;;;;;15.90;13.13;;;;;;;5.61;100.00;101460.22;5007641;28;20211;-58
2021/12/14 08:49:05;;;;;;;17.97;13.13;;;;;;;5.58;100.00;101448.19;5009795;28;20196;-57
2021/12/14 08:51:36;;;;;;;18.50;13.73;;;;;;;5.57;100.00;101450.69;5019346;28;20268;-58
2021/12/14 08:54:15;;;;;;;19.60;14.03;;;;;;;5.57;100.00;101466.97;5018022;28;20200;-58
2021/12/14 08:56:45;;;;;;;17.00;13.17;;;;;;;5.58;100.00;101473.84;5013944;28;20268;-59
2021/12/14 08:59:11;;;;;;;16.87;13.43;;;;;;;5.60;100.00;101477.31;5016898;28;20221;-58
2021/12/14 09:01:40;;;;;;;16.13;13.03;;;;;;;5.64;100.00;101481.72;5012170;28;20188;-58
2021/12/14 09:04:12;;;;;;;14.20;12.13;;;;;;;5.67;100.00;101477.53;5006110;28;20963;-58
2021/12/14 09:06:41;;;;;;;14.47;12.33;;;;;;;5.71;100.00;101477.66;5010526;28;20219;-59
2021/12/14 09:09:12;;;;;;;14.73;11.60;;;;;;;5.78;100.00;101469.31;5021011;28;20537;-58
2021/12/14 09:11:40;;;;;;;13.83;11.13;;;;;;;5.85;100.00;101475.50;5020670;28;20196;-59
2021/12/14 09:14:09;;;;;;;14.90;11.97;;;;;;;5.96;100.00;101486.09;5019817;28;20199;-58
2021/12/14 09:16:36;;;;;;;14.83;12.00;;;;;;;6.04;100.00;101489.78;5015083;28;20611;-59
2021/12/14 09:19:12;;;;;;;13.90;11.70;;;;;;;6.09;100.00;101490.81;5016797;28;20220;-58
2021/12/14 09:21:44;;;;;;;12.77;10.80;;;;;;;6.18;100.00;101491.88;5018967;28;20207;-60
2021/12/14 09:24:19;;;;;;;13.20;11.80;;;;;;;6.24;100.00;101489.50;5011486;28;20658;-59
2021/12/14 09:26:50;;;;;;;12.73;11.40;;;;;;;6.29;100.00;101494.75;5024003;27;20257;-58
2021/12/14 09:29:18;;;;;;;12.57;11.20;;;;;;;6.34;100.00;101493.22;5024786;28;20208;-58
2021/12/14 09:31:48;;;;;;;13.07;11.47;;;;;;;6.34;100.00;101503.50;5017696;28;20187;-59
2021/12/14 09:34:16;;;;;;;13.93;11.80;;;;;;;6.35;100.00;101502.66;5007807;28;20395;-58
2021/12/14 09:36:43;;;;;;;13.87;11.90;;;;;;;6.33;100.00;101509.47;5018400;28;20291;-59
2021/12/14 09:39:20;;;;;;;14.43;12.77;;;;;;;6.36;100.00;101505.25;5015282;28;20236;-58
2021/12/14 09:41:50;;;;;;;14.87;12.83;;;;;;;6.36;100.00;101507.84;5047015;28;20585;-58
2021/12/14 09:44:20;;;;;;;15.10;12.73;;;;;;;6.34;100.00;101506.91;5016168;28;20190;-59
2021/12/14 09:46:46;;;;;;;12.77;11.47;;;;;;;6.35;100.00;101510.38;5013690;28;20203;-58
2021/12/14 09:49:14;;;;;;;17.70;14.00;;;;;;;6.34;100.00;101508.63;5042594;28;20260;-58
2021/12/14 09:51:56;;;;;;;17.33;14.80;;;;;;;6.32;100.00;101506.00;5011758;28;20194;-59
2021/12/14 09:54:24;;;;;;;19.40;16.53;;;;;;;6.30;100.00;101511.94;5016914;28;20183;-57
2021/12/14 09:56:56;;;;;;;20.03;16.23;;;;;;;6.26;100.00;101503.28;5011186;28;20208;-58
2021/12/14 09:59:22;;;;;;;20.33;18.17;;;;;;;6.28;100.00;101511.00;5017286;28;20264;-57
2021/12/14 10:01:56;;;;;;;20.73;17.30;;;;;;;6.23;100.00;101501.47;5002790;28;20186;-58
2021/12/14 10:04:29;;;;;;;21.00;17.87;;;;;;;6.19;100.00;101501.34;5018317;28;20400;-57
2021/12/14 10:06:55;;;;;;;19.57;16.87;;;;;;;6.16;100.00;101502.13;5006532;28;20729;-58
2021/12/14 10:09:26;;;;;;;20.77;17.10;;;;;;;6.11;100.00;101511.41;5001075;28;20212;-57
2021/12/14 10:12:17;;;;;;;20.40;17.70;;;;;;;6.09;100.00;101516.50;5012216;28;20192;-59
2021/12/14 10:14:47;;;;;;;21.13;17.60;;;;;;;6.07;100.00;101519.84;5018900;28;20179;-58
2021/12/14 10:17:14;;;;;;;18.90;16.37;;;;;;;6.09;100.00;101510.47;5020195;28;20654;-58
2021/12/14 10:19:42;;;;;;;20.47;18.23;;;;;;;6.12;100.00;101502.00;5019330;28;20211;-58
2021/12/14 10:22:12;;;;;;;20.93;17.20;;;;;;;6.15;100.00;101507.22;5020324;28;20210;-58
2021/12/14 10:24:38;;;;;;;20.17;17.57;;;;;;;6.19;100.00;101506.47;5014122;28;20194;-58
2021/12/14 10:27:08;;;;;;;20.87;17.63;;;;;;;6.26;100.00;101498.13;5010109;28;20208;-57
2021/12/14 10:29:34;;;;;;;22.67;19.90;;;;;;;6.32;100.00;101498.28;5021744;28;20268;-58
2021/12/14 10:32:07;;;;;;;20.83;18.23;;;;;;;6.36;100.00;101499.22;5011024;28;20288;-58
2021/12/14 10:34:39;;;;;;;21.80;19.03;;;;;;;6.37;100.00;101500.97;5018430;28;20202;-58
2021/12/14 10:37:16;;;;;;;20.97;18.70;;;;;;;6.42;100.00;101493.41;5023215;28;20213;-58
2021/12/14 10:45:13;;;;;;;23.10;19.97;;;;;;;6.53;100.00;101477.44;5023476;28;20230;-58
2021/12/14 10:47:41;;;;;;;22.00;19.63;;;;;;;6.64;100.00;101480.28;5010367;28;20213;-58
2021/12/14 10:50:14;;;;;;;19.77;17.67;;;;;;;6.72;100.00;101477.91;5012222;28;20185;-60
2021/12/14 10:52:42;;;;;;;21.87;19.53;;;;;;;6.78;100.00;101472.06;5002266;28;20268;-58
2021/12/14 10:55:14;;;;;;;21.00;18.70;;;;;;;6.80;100.00;101476.44;5016936;28;20199;-58
2021/12/14 10:57:40;;;;;;;20.87;18.60;;;;;;;6.84;100.00;101472.22;5004974;28;20215;-58
2021/12/14 11:00:14;;;;;;;18.97;16.97;;;;;;;6.94;100.00;101476.78;5018583;28;20213;-59
2021/12/14 11:02:40;;;;;;;21.23;18.93;;;;;;;7.05;100.00;101471.00;5013216;28;20664;-57
2021/12/14 11:05:14;;;;;;;21.00;18.33;;;;;;;7.15;100.00;101465.28;5006656;28;20197;-59
2021/12/14 11:07:42;;;;;;;20.10;18.00;;;;;;;7.27;100.00;101465.56;5015589;28;20238;-59
2021/12/14 11:10:16;;;;;;;22.67;19.73;;;;;;;7.38;100.00;101455.50;5018263;28;20732;-61
2021/12/14 11:12:48;;;;;;;21.20;18.87;;;;;;;7.38;100.00;101455.50;5018201;28;20191;-57
2021/12/14 11:15:20;;;;;;;20.53;18.23;;;;;;;7.42;100.00;101457.31;5015938;28;20281;-59
2021/12/14 11:20:48;;;;;;;19.37;17.03;;;;;;;7.60;100.00;101466.28;5005574;28;20624;-59
2021/12/14 11:23:36;;;;;;;19.83;17.70;;;;;;;7.67;100.00;101475.03;5014286;28;20214;-59
2021/12/14 11:26:07;;;;;;;18.57;16.63;;;;;;;7.67;100.00;101480.16;5007031;28;20227;-58
2021/12/14 11:28:44;;;;;;;17.67;15.80;;;;;;;7.64;100.00;101478.41;5005864;28;20301;-60
2021/12/14 11:31:18;;;;;;;16.93;14.93;;;;;;;7.63;100.00;101481.81;5015254;28;20222;-59
2021/12/14 11:34:08;;;;;;;18.57;16.57;;;;;;;7.61;100.00;101486.94;5025052;28;20179;-59
2021/12/14 11:36:40;;;;;;;17.93;16.03;;;;;;;7.59;100.00;101488.63;5011756;28;20200;-57
2021/12/14 11:39:10;;;;;;;16.40;14.70;;;;;;;7.59;100.00;101498.91;5001084;28;20251;-56
2021/12/14 11:41:45;;;;;;;16.83;15.13;;;;;;;7.58;100.00;101502.34;5020970;28;20187;-59
2021/12/14 11:44:25;;;;;;;18.03;16.13;;;;;;;7.60;100.00;101497.19;5007772;28;20187;-57
2021/12/14 11:46:58;;;;;;;16.73;15.13;;;;;;;7.63;100.00;101498.16;5015525;28;20207;-58
2021/12/14 11:49:43;;;;;;;15.93;14.23;;;;;;;7.67;100.00;101495.63;5012392;28;20220;-57
2021/12/14 11:52:10;;;;;;;16.63;14.93;;;;;;;7.69;100.00;101493.97;5008308;28;20188;-57
2021/12/14 11:54:47;;;;;;;17.33;15.63;;;;;;;7.73;100.00;101485.47;5016744;28;20278;-59
2021/12/14 11:57:15;;;;;;;17.13;15.43;;;;;;;7.73;100.00;101488.06;5007898;28;20214;-58
2021/12/14 11:59:41;;;;;;;18.90;16.63;;;;;;;7.76;100.00;101485.56;5027299;28;20788;-59
2021/12/14 12:02:07;;;;;;;19.17;17.23;;;;;;;7.85;100.00;101492.63;5019651;28;20204;-58
2021/12/14 12:04:35;;;;;;;17.97;15.87;;;;;;;7.93;100.00;101491.06;5009569;28;20652;-59
2021/12/14 12:09:42;;;;;;;17.37;15.57;;;;;;;8.09;100.00;101479.38;5025523;28;20590;-58